Time;durP1;ratioP1;P1;durP2;ratioP2;P2;SDS_P1;SDS_P2;PMS_P1;PMS_P2;Temp;Humidity;BMP_temperature;BMP_pressure;BME280_temperature;BME280_humidity;BME280_pressure;Samples;Min_cycle;Max_cycle;Signal;HPM_P1;HPM_P2
2023/09/05 00:00:10;;;;;;;4.10;3.60;;;;;;;12.52;100.00;97632.04;110062;1278;22449;-91
2023/09/05 00:02:56;;;;;;;5.00;3.90;;;;;;;12.51;100.00;97628.23;109946;1280;139321;-90
2023/09/05 00:05:25;;;;;;;6.60;3.80;;;;;;;12.50;100.00;97628.42;110039;1279;22379;-91
2023/09/05 00:07:53;;;;;;;3.50;3.00;;;;;;;12.49;100.00;97631.32;110038;1276;138618;-91
2023/09/05 00:10:19;;;;;;;4.20;3.60;;;;;;;12.48;100.00;97630.60;110068;1279;22209;-91
2023/09/05 00:12:46;;;;;;;4.90;3.60;;;;;;;12.45;100.00;97628.30;110037;1279;22467;-91
2023/09/05 00:15:13;;;;;;;5.80;3.80;;;;;;;12.44;100.00;97624.13;109971;1279;136914;-91
2023/09/05 00:17:43;;;;;;;4.40;4.00;;;;;;;12.42;100.00;97627.61;110079;1273;22232;-91
2023/09/05 00:20:14;;;;;;;4.20;3.40;;;;;;;12.40;100.00;97629.17;109945;1279;138192;-90
2023/09/05 00:22:41;;;;;;;5.60;3.80;;;;;;;12.40;100.00;97627.00;110031;1279;22359;-92
2023/09/05 00:25:07;;;;;;;8.40;3.50;;;;;;;12.38;100.00;97619.15;109939;1279;138617;-90
2023/09/05 00:27:36;;;;;;;4.30;3.50;;;;;;;12.36;100.00;97616.91;110018;1276;22350;-90
2023/09/05 00:30:03;;;;;;;7.40;3.60;;;;;;;12.35;100.00;97612.16;110156;1273;22347;-91
2023/09/05 00:32:32;;;;;;;5.50;3.70;;;;;;;12.33;100.00;97608.31;109877;1279;138690;-91
2023/09/05 00:34:59;;;;;;;4.50;3.90;;;;;;;12.32;100.00;97607.95;110068;1274;23207;-91
2023/09/05 00:37:25;;;;;;;6.40;4.00;;;;;;;12.30;100.00;97602.26;109988;1274;138650;-91
2023/09/05 00:39:51;;;;;;;4.70;3.90;;;;;;;12.30;100.00;97602.59;110114;1275;22340;-92
2023/09/05 00:42:18;;;;;;;4.80;3.90;;;;;;;12.29;100.00;97600.14;110029;1279;22910;-91
2023/09/05 00:44:46;;;;;;;6.50;4.50;;;;;;;12.28;100.00;97596.40;109953;1279;138823;-91
2023/09/05 00:47:22;;;;;;;7.90;3.90;;;;;;;12.27;100.00;97596.36;109972;1279;22324;-91
2023/09/05 00:49:48;;;;;;;6.50;3.50;;;;;;;12.26;100.00;97599.69;109951;1273;138414;-90
2023/09/05 00:52:15;;;;;;;4.90;3.60;;;;;;;12.27;100.00;97600.38;110121;1279;22202;-91
2023/09/05 00:54:42;;;;;;;5.80;3.60;;;;;;;12.25;100.00;97597.21;110034;1271;23002;-91
2023/09/05 00:57:11;;;;;;;8.30;4.10;;;;;;;12.24;100.00;97600.35;109938;1273;137968;-91
2023/09/05 00:59:37;;;;;;;5.80;4.10;;;;;;;12.22;100.00;97598.39;110006;1276;22391;-91
2023/09/05 01:02:04;;;;;;;7.20;4.20;;;;;;;12.21;100.00;97596.34;109975;1274;139214;-91
2023/09/05 01:04:33;;;;;;;5.60;4.00;;;;;;;12.20;100.00;97593.95;110091;1271;22473;-91
2023/09/05 01:07:18;;;;;;;6.30;4.00;;;;;;;12.19;100.00;97596.48;109959;1275;138293;-91
2023/09/05 01:09:59;;;;;;;6.40;4.40;;;;;;;12.20;100.00;97596.42;110128;1279;23178;-91
2023/09/05 01:12:25;;;;;;;6.30;4.10;;;;;;;12.20;100.00;97596.89;110109;1273;22223;-90
2023/09/05 01:14:52;;;;;;;5.30;4.20;;;;;;;12.21;100.00;97596.70;109920;1280;139125;-91
2023/09/05 01:17:19;;;;;;;4.80;4.00;;;;;;;12.22;100.00;97596.93;109992;1276;22209;-90
2023/09/05 01:19:50;;;;;;;6.70;4.70;;;;;;;12.22;100.00;97597.74;109998;1280;137467;-90
2023/09/05 01:22:39;;;;;;;8.90;4.50;;;;;;;12.23;100.00;97597.52;110037;1281;22186;-90
2023/09/05 01:25:08;;;;;;;4.90;4.20;;;;;;;12.23;100.00;97599.76;109976;1274;138595;-91
2023/09/05 01:27:34;;;;;;;6.60;3.90;;;;;;;12.22;100.00;97600.21;109979;1277;22515;-90
2023/09/05 01:30:05;;;;;;;5.90;4.30;;;;;;;12.19;100.00;97599.94;110050;1274;22215;-91
2023/09/05 01:32:31;;;;;;;7.20;4.30;;;;;;;12.16;100.00;97604.95;109932;1277;138478;-90
2023/09/05 01:34:58;;;;;;;6.20;4.40;;;;;;;12.14;100.00;97604.14;110003;1277;22321;-91
2023/09/05 01:37:25;;;;;;;5.90;4.70;;;;;;;12.14;100.00;97600.48;109898;1274;137827;-91
2023/09/05 01:39:52;;;;;;;5.20;4.50;;;;;;;12.14;100.00;97602.90;110062;1280;22227;-90
2023/09/05 01:42:19;;;;;;;7.20;5.10;;;;;;;12.14;100.00;97598.54;110098;1272;22351;-90
2023/09/05 01:44:45;;;;;;;4.70;4.30;;;;;;;12.13;100.00;97593.81;109931;1279;139263;-90
2023/09/05 01:47:12;;;;;;;7.60;4.70;;;;;;;12.14;100.00;97593.39;110130;1272;22425;-91
2023/09/05 01:49:38;;;;;;;7.20;5.20;;;;;;;12.14;100.00;97595.99;110006;1274;138643;-90
2023/09/05 01:52:05;;;;;;;6.20;4.60;;;;;;;12.14;100.00;97594.66;110094;1279;22461;-90
2023/09/05 01:54:37;;;;;;;6.30;4.80;;;;;;;12.13;100.00;97592.31;110123;1278;22273;-90
2023/09/05 01:57:04;;;;;;;6.50;5.10;;;;;;;12.11;100.00;97592.09;109969;1275;138599;-91
2023/09/05 01:59:31;;;;;;;6.70;5.00;;;;;;;12.10;100.00;97591.02;110044;1280;23222;-91
2023/09/05 02:01:57;;;;;;;6.80;4.80;;;;;;;12.10;100.00;97583.56;109964;1274;138434;-91
2023/09/05 02:04:24;;;;;;;5.70;4.40;;;;;;;12.08;100.00;97585.52;110095;1279;23009;-92
2023/09/05 02:06:50;;;;;;;6.20;5.20;;;;;;;12.07;100.00;97582.45;109915;1273;139079;-91
2023/09/05 02:09:16;;;;;;;7.00;4.40;;;;;;;12.09;100.00;97584.23;110086;1277;22187;-90
2023/09/05 02:11:43;;;;;;;7.00;5.50;;;;;;;12.09;100.00;97582.33;110041;1275;22222;-91
2023/09/05 02:14:10;;;;;;;7.70;5.00;;;;;;;12.09;100.00;97580.20;109859;1279;138884;-91
2023/09/05 02:16:36;;;;;;;6.60;5.00;;;;;;;12.09;100.00;97579.03;110023;1277;22216;-91
2023/09/05 02:19:03;;;;;;;8.30;5.80;;;;;;;12.09;100.00;97582.65;109951;1280;139062;-91
2023/09/05 02:21:29;;;;;;;5.20;4.60;;;;;;;12.07;100.00;97581.68;109987;1277;22479;-90
2023/09/05 02:23:55;;;;;;;5.60;5.10;;;;;;;12.05;100.00;97579.23;110084;1276;22624;-90
2023/09/05 02:26:37;;;;;;;7.10;5.00;;;;;;;12.04;100.00;97578.66;109905;1280;138815;-90
2023/09/05 02:29:03;;;;;;;7.90;5.00;;;;;;;12.05;100.00;97579.95;110046;1271;22367;-91
2023/09/05 02:31:30;;;;;;;8.80;4.80;;;;;;;12.05;100.00;97581.51;110059;1277;139527;-91
2023/09/05 02:33:57;;;;;;;7.50;5.30;;;;;;;12.06;100.00;97585.98;110124;1278;22103;-91
2023/09/05 02:36:23;;;;;;;5.80;5.10;;;;;;;12.02;100.00;97582.06;110080;1277;22291;-90
2023/09/05 02:38:49;;;;;;;6.00;4.90;;;;;;;11.99;100.00;97580.15;109910;1273;139353;-91
2023/09/05 02:41:17;;;;;;;8.90;5.40;;;;;;;11.97;100.00;97575.88;109998;1279;22890;-91
2023/09/05 02:43:44;;;;;;;9.20;5.70;;;;;;;11.95;100.00;97572.24;110072;1273;138566;-91
2023/09/05 02:46:11;;;;;;;7.80;5.80;;;;;;;11.95;100.00;97571.73;110098;1272;22417;-91
2023/09/05 02:48:38;;;;;;;7.20;5.70;;;;;;;11.95;100.00;97573.84;110097;1277;22239;-91
2023/09/05 02:51:07;;;;;;;6.70;5.70;;;;;;;11.95;100.00;97574.00;109870;1277;138466;-91
2023/09/05 02:53:33;;;;;;;5.90;5.20;;;;;;;11.94;100.00;97568.36;110103;1273;22419;-90
2023/09/05 02:56:00;;;;;;;7.00;5.90;;;;;;;11.93;100.00;97564.83;109991;1274;137790;-91
2023/09/05 02:58:28;;;;;;;8.80;5.70;;;;;;;11.93;100.00;97568.83;110047;1278;23315;-91
2023/09/05 03:01:00;;;;;;;7.60;5.60;;;;;;;11.93;100.00;97571.30;109906;1277;138888;-91
2023/09/05 03:03:27;;;;;;;10.10;6.40;;;;;;;11.92;100.00;97573.96;109986;1277;22207;-91
2023/09/05 03:05:55;;;;;;;8.30;6.40;;;;;;;11.92;100.00;97574.91;110058;1280;22661;-91
2023/09/05 03:08:21;;;;;;;6.00;5.40;;;;;;;11.91;100.00;97568.40;110045;1277;138928;-91
2023/09/05 03:10:51;;;;;;;7.20;6.00;;;;;;;11.89;100.00;97573.74;110039;1279;22259;-91
2023/09/05 03:13:19;;;;;;;7.00;6.30;;;;;;;11.90;100.00;97572.34;109899;1279;138976;-91
2023/09/05 03:15:49;;;;;;;7.00;6.20;;;;;;;11.90;100.00;97571.20;110057;1274;22166;-91
2023/09/05 03:18:18;;;;;;;8.40;6.10;;;;;;;11.91;100.00;97569.21;110070;1277;22185;-91
2023/09/05 03:20:45;;;;;;;7.20;6.40;;;;;;;11.91;100.00;97571.36;110060;1275;139077;-91
2023/09/05 03:23:11;;;;;;;10.10;6.50;;;;;;;11.91;100.00;97569.45;110113;1279;22195;-91
2023/09/05 03:25:38;;;;;;;7.40;6.20;;;;;;;11.91;100.00;97577.42;109936;1277;138865;-91
2023/09/05 03:28:05;;;;;;;6.70;5.50;;;;;;;11.91;100.00;97574.61;110051;1277;22278;-91
2023/09/05 03:30:31;;;;;;;6.60;5.70;;;;;;;11.93;100.00;97573.67;110076;1277;22806;-91
2023/09/05 03:32:57;;;;;;;7.20;6.10;;;;;;;11.95;100.00;97571.35;109939;1277;139209;-91
2023/09/05 03:35:23;;;;;;;7.70;6.10;;;;;;;11.96;100.00;97571.79;110061;1274;22180;-91
2023/09/05 03:37:50;;;;;;;6.90;5.70;;;;;;;11.96;100.00;97572.50;109977;1277;138808;-91
2023/09/05 03:40:16;;;;;;;7.80;5.80;;;;;;;11.97;100.00;97570.32;110088;1276;22388;-91
2023/09/05 03:42:43;;;;;;;7.30;5.80;;;;;;;11.98;100.00;97571.42;110043;1277;22241;-91
2023/09/05 03:45:10;;;;;;;6.10;5.20;;;;;;;11.97;100.00;97568.91;109920;1277;138670;-92
2023/09/05 03:47:37;;;;;;;7.40;5.60;;;;;;;11.95;100.00;97570.36;110104;1280;22470;-91
2023/09/05 03:50:04;;;;;;;6.20;5.50;;;;;;;11.93;100.00;97571.46;109939;1280;138991;-90
2023/09/05 03:52:30;;;;;;;5.90;5.20;;;;;;;11.91;100.00;97568.70;110036;1280;23438;-91
2023/09/05 03:54:56;;;;;;;8.20;5.60;;;;;;;11.90;100.00;97569.55;109917;1278;138987;-90
2023/09/05 03:57:23;;;;;;;7.60;5.70;;;;;;;11.89;100.00;97572.44;109999;1280;22116;-92
2023/09/05 03:59:50;;;;;;;7.30;5.60;;;;;;;11.90;100.00;97570.98;110033;1280;22285;-90
2023/09/05 04:02:16;;;;;;;7.70;5.40;;;;;;;11.91;100.00;97572.17;109958;1275;138944;-91
2023/09/05 04:04:43;;;;;;;7.40;5.60;;;;;;;11.94;100.00;97574.67;110023;1280;22196;-91
2023/09/05 04:07:09;;;;;;;7.90;5.50;;;;;;;11.97;100.00;97575.72;109983;1275;139000;-91
2023/09/05 04:09:36;;;;;;;6.70;4.90;;;;;;;11.99;100.00;97577.27;109967;1277;22196;-91
2023/09/05 04:12:02;;;;;;;7.30;5.70;;;;;;;12.00;100.00;97578.73;110080;1271;22408;-92
2023/09/05 04:14:30;;;;;;;7.40;6.70;;;;;;;12.03;100.00;97575.80;109983;1275;137606;-91
2023/09/05 04:16:57;;;;;;;6.10;5.20;;;;;;;12.08;100.00;97578.39;110094;1274;22249;-91
2023/09/05 04:19:23;;;;;;;6.40;5.30;;;;;;;12.10;100.00;97582.88;110052;1275;139660;-91
2023/09/05 04:21:49;;;;;;;7.20;5.60;;;;;;;12.11;100.00;97580.37;110033;1280;22256;-91
2023/09/05 04:24:15;;;;;;;6.00;5.30;;;;;;;12.13;100.00;97583.23;110037;1280;22205;-90
2023/09/05 04:26:45;;;;;;;7.50;5.60;;;;;;;12.15;100.00;97580.98;109926;1274;138610;-91
2023/09/05 04:29:11;;;;;;;7.50;5.20;;;;;;;12.15;100.00;97580.03;110036;1277;22839;-90
2023/09/05 04:31:41;;;;;;;6.40;5.80;;;;;;;12.16;100.00;97579.21;109982;1280;139385;-91
2023/09/05 04:34:08;;;;;;;7.60;5.10;;;;;;;12.17;100.00;97580.84;110080;1277;22221;-91
2023/09/05 04:36:36;;;;;;;7.50;5.80;;;;;;;12.19;100.00;97578.73;110096;1279;22222;-91
2023/09/05 04:39:04;;;;;;;5.80;5.10;;;;;;;12.21;100.00;97578.58;110019;1280;138401;-91
2023/09/05 04:41:32;;;;;;;6.10;5.50;;;;;;;12.24;100.00;97573.70;110086;1277;22205;-92
2023/09/05 04:44:00;;;;;;;6.00;5.40;;;;;;;12.26;100.00;97570.38;109911;1275;137617;-91
2023/09/05 04:46:31;;;;;;;7.90;5.50;;;;;;;12.28;100.00;97573.30;109983;1280;22129;-90
2023/09/05 04:49:03;;;;;;;6.70;5.50;;;;;;;12.28;100.00;97574.73;109964;1273;138885;-91
2023/09/05 04:51:29;;;;;;;6.40;5.60;;;;;;;12.29;100.00;97575.48;110087;1280;22195;-91
2023/09/05 04:53:55;;;;;;;7.50;5.30;;;;;;;12.29;100.00;97576.69;110067;1273;22329;-91
2023/09/05 04:56:23;;;;;;;6.70;5.30;;;;;;;12.29;100.00;97572.84;109958;1282;138967;-90
2023/09/05 04:58:49;;;;;;;7.00;5.10;;;;;;;12.32;100.00;97575.48;110103;1280;22231;-91
2023/09/05 05:01:17;;;;;;;6.70;5.60;;;;;;;12.33;100.00;97574.30;109976;1277;138832;-91
2023/09/05 05:03:44;;;;;;;6.90;5.60;;;;;;;12.36;100.00;97581.61;109993;1279;22437;-91
2023/09/05 05:06:11;;;;;;;6.70;5.00;;;;;;;12.39;100.00;97588.27;110091;1280;22173;-91
2023/09/05 05:08:38;;;;;;;6.50;5.80;;;;;;;12.42;100.00;97594.13;109892;1277;138643;-91
2023/09/05 05:11:05;;;;;;;8.10;5.80;;;;;;;12.41;100.00;97601.10;110126;1271;22407;-91
2023/09/05 05:13:31;;;;;;;6.80;5.70;;;;;;;12.42;100.00;97605.20;109923;1281;139388;-91
2023/09/05 05:15:57;;;;;;;8.80;5.80;;;;;;;12.43;100.00;97606.30;109970;1276;22186;-91
2023/09/05 05:18:23;;;;;;;6.50;5.80;;;;;;;12.42;100.00;97609.66;110047;1273;22180;-91
2023/09/05 05:20:50;;;;;;;6.80;6.20;;;;;;;12.44;100.00;97613.34;109918;1280;138941;-90
2023/09/05 05:23:16;;;;;;;9.00;6.60;;;;;;;12.43;100.00;97617.29;110132;1279;22448;-90
2023/09/05 05:25:43;;;;;;;8.70;6.50;;;;;;;12.41;100.00;97622.89;110026;1280;138736;-91
2023/09/05 05:28:10;;;;;;;10.40;6.80;;;;;;;12.40;100.00;97629.21;110088;1265;22235;-91
2023/09/05 05:30:36;;;;;;;8.50;6.20;;;;;;;12.40;100.00;97627.48;109994;1275;22159;-91
2023/09/05 05:33:03;;;;;;;7.00;6.20;;;;;;;12.39;100.00;97621.85;109961;1280;137386;-91
2023/09/05 05:35:30;;;;;;;9.60;6.80;;;;;;;12.38;100.00;97625.38;109973;1277;22337;-91
2023/09/05 05:37:57;;;;;;;8.00;6.90;;;;;;;12.37;100.00;97628.79;109982;1274;138979;-91
2023/09/05 05:40:24;;;;;;;10.50;7.40;;;;;;;12.37;100.00;97627.62;110011;1280;22345;-92
2023/09/05 05:42:50;;;;;;;9.80;6.90;;;;;;;12.39;100.00;97628.30;109939;1280;137964;-91
2023/09/05 05:45:17;;;;;;;10.00;6.50;;;;;;;12.39;100.00;97625.86;110074;1275;22237;-91
2023/09/05 05:47:43;;;;;;;7.20;6.30;;;;;;;12.38;100.00;97623.13;110102;1278;22369;-90
2023/09/05 05:50:09;;;;;;;7.60;5.90;;;;;;;12.39;100.00;97628.63;109953;1280;137647;-92
2023/09/05 05:52:36;;;;;;;5.80;5.20;;;;;;;12.40;100.00;97626.25;110079;1276;22225;-91
2023/09/05 05:55:03;;;;;;;5.80;5.20;;;;;;;12.42;100.00;97622.60;109936;1280;139265;-91
2023/09/05 05:57:30;;;;;;;6.90;6.20;;;;;;;12.44;100.00;97618.55;110013;1278;22196;-91
2023/09/05 05:59:56;;;;;;;8.90;5.80;;;;;;;12.48;100.00;97623.70;110083;1279;22240;-91
2023/09/05 06:02:24;;;;;;;6.50;5.90;;;;;;;12.51;100.00;97623.69;109947;1274;138437;-92
2023/09/05 06:04:50;;;;;;;7.20;6.10;;;;;;;12.54;100.00;97623.64;110099;1279;22201;-90
2023/09/05 06:07:21;;;;;;;9.30;5.90;;;;;;;12.57;100.00;97627.00;109983;1273;138804;-91
2023/09/05 06:09:47;;;;;;;7.80;5.80;;;;;;;12.60;100.00;97628.10;110051;1272;22381;-91
2023/09/05 06:12:13;;;;;;;6.00;5.10;;;;;;;12.61;100.00;97627.93;110106;1275;22412;-91
2023/09/05 06:14:39;;;;;;;8.00;5.90;;;;;;;12.63;100.00;97625.16;109981;1279;138689;-91
2023/09/05 06:17:06;;;;;;;7.50;6.30;;;;;;;12.66;100.00;97622.58;110093;1280;22182;-91
2023/09/05 06:19:33;;;;;;;7.00;6.30;;;;;;;12.71;100.00;97622.76;109968;1276;139631;-91
2023/09/05 06:21:59;;;;;;;6.90;5.90;;;;;;;12.73;100.00;97620.44;110117;1275;22964;-91
2023/09/05 06:24:25;;;;;;;7.30;5.80;;;;;;;12.76;100.00;97618.17;110090;1275;22329;-91
2023/09/05 06:26:52;;;;;;;6.70;6.00;;;;;;;12.79;100.00;97615.59;110068;1279;138708;-91
2023/09/05 06:29:19;;;;;;;7.20;6.50;;;;;;;12.82;100.00;97612.13;110053;1274;23409;-92
2023/09/05 06:31:48;;;;;;;7.00;6.30;;;;;;;12.85;100.00;97609.89;109869;1273;138874;-92
2023/09/05 06:34:15;;;;;;;6.30;5.70;;;;;;;12.89;100.00;97612.98;109966;1280;22133;-91
2023/09/05 06:36:42;;;;;;;6.40;5.70;;;;;;;12.92;100.00;97616.42;110020;1276;22227;-91
2023/09/05 06:39:09;;;;;;;7.10;5.90;;;;;;;12.96;100.00;97621.39;110031;1271;138254;-92
2023/09/05 06:41:39;;;;;;;9.30;6.00;;;;;;;13.00;100.00;97621.67;110029;1277;22411;-91
2023/09/05 06:44:07;;;;;;;7.40;6.00;;;;;;;13.04;100.00;97618.61;109956;1279;137984;-91
2023/09/05 06:46:35;;;;;;;7.90;5.20;;;;;;;13.08;100.00;97620.30;109977;1272;22944;-91
2023/09/05 06:49:03;;;;;;;7.40;6.70;;;;;;;13.12;100.00;97622.92;110019;1279;138902;-91
2023/09/05 06:51:30;;;;;;;8.40;6.00;;;;;;;13.16;100.00;97625.63;110115;1277;22282;-91
2023/09/05 06:53:58;;;;;;;8.80;7.50;;;;;;;13.19;100.00;97622.75;109962;1279;22357;-91
2023/09/05 06:56:25;;;;;;;6.70;5.90;;;;;;;13.23;100.00;97620.77;109860;1277;138487;-91
2023/09/05 06:58:53;;;;;;;8.40;7.30;;;;;;;13.28;100.00;97619.71;110010;1277;22248;-91
2023/09/05 07:01:19;;;;;;;8.90;7.90;;;;;;;13.33;100.00;97617.61;109949;1276;137416;-91
2023/09/05 07:03:48;;;;;;;8.20;7.30;;;;;;;13.39;100.00;97617.51;110051;1277;22470;-91
2023/09/05 07:06:18;;;;;;;9.00;7.40;;;;;;;13.43;100.00;97616.23;110103;1280;22219;-91
2023/09/05 07:08:46;;;;;;;12.90;10.90;;;;;;;13.50;100.00;97620.59;109960;1278;139289;-90
2023/09/05 07:11:14;;;;;;;12.10;8.70;;;;;;;13.56;100.00;97621.44;110087;1274;22931;-91
2023/09/05 07:13:40;;;;;;;11.60;9.40;;;;;;;13.63;100.00;97622.58;109909;1276;140342;-91
2023/09/05 07:16:07;;;;;;;19.90;14.20;;;;;;;13.67;100.00;97621.27;110078;1275;22421;-91
2023/09/05 07:18:35;;;;;;;9.30;8.10;;;;;;;13.72;100.00;97623.66;110076;1281;22962;-90
2023/09/05 07:21:02;;;;;;;11.80;9.40;;;;;;;13.79;100.00;97623.17;109915;1279;138902;-91
2023/09/05 07:23:29;;;;;;;9.40;8.00;;;;;;;13.85;100.00;97619.77;110074;1274;22191;-92
2023/09/05 07:25:56;;;;;;;13.80;10.30;;;;;;;13.89;100.00;97615.30;110062;1276;139540;-91
2023/09/05 07:28:25;;;;;;;15.70;10.10;;;;;;;13.94;100.00;97614.61;110090;1279;23106;-91
2023/09/05 07:30:52;;;;;;;10.10;9.10;;;;;;;13.99;100.00;97612.98;109897;1279;138839;-91
2023/09/05 07:33:35;;;;;;;10.00;8.40;;;;;;;14.04;100.00;97605.61;110017;1279;22183;-90
2023/09/05 07:36:02;;;;;;;9.20;7.40;;;;;;;14.10;100.00;97604.73;110062;1277;22887;-91
2023/09/05 07:38:28;;;;;;;9.00;7.20;;;;;;;14.17;100.00;97604.18;109943;1273;138242;-91
2023/09/05 07:41:04;;;;;;;8.20;7.40;;;;;;;14.22;100.00;97604.23;110028;1279;22184;-91
2023/09/05 07:43:32;;;;;;;9.90;7.80;;;;;;;14.26;100.00;97607.23;109991;1278;138548;-91
2023/09/05 07:45:58;;;;;;;10.50;8.60;;;;;;;14.31;100.00;97610.09;110090;1271;22517;-92
2023/09/05 07:48:25;;;;;;;8.70;7.40;;;;;;;14.34;100.00;97617.16;110049;1275;22934;-91
2023/09/05 07:51:00;;;;;;;10.00;7.50;;;;;;;14.40;100.00;97615.40;109950;1279;138505;-92
2023/09/05 07:53:27;;;;;;;9.20;8.30;;;;;;;14.47;100.00;97616.02;110093;1277;22337;-91
2023/09/05 07:55:54;;;;;;;11.10;8.00;;;;;;;14.53;100.00;97614.04;109892;1279;138631;-91
2023/09/05 07:58:20;;;;;;;7.70;6.30;;;;;;;14.61;100.00;97610.95;110076;1272;23350;-91
2023/09/05 08:00:47;;;;;;;7.90;7.00;;;;;;;14.69;100.00;97610.77;110076;1279;22217;-91
2023/09/05 08:03:14;;;;;;;10.30;7.40;;;;;;;14.72;100.00;97610.20;109990;1279;22371;-91
2023/09/05 08:05:41;;;;;;;6.90;6.10;;;;;;;14.80;100.00;97604.72;110052;1279;23220;-91
2023/09/05 08:08:07;;;;;;;7.60;6.90;;;;;;;14.91;100.00;97603.64;109899;1279;139189;-92
2023/09/05 08:10:34;;;;;;;8.20;6.40;;;;;;;15.01;100.00;97605.80;110007;1271;22321;-91
2023/09/05 08:13:00;;;;;;;10.60;7.50;;;;;;;15.09;100.00;97606.95;109903;1273;139200;-91
2023/09/05 08:15:27;;;;;;;7.50;6.70;;;;;;;15.21;100.00;97608.63;110077;1271;22308;-91
2023/09/05 08:17:53;;;;;;;8.30;6.10;;;;;;;15.31;100.00;97613.27;110065;1276;22465;-91
2023/09/05 08:20:21;;;;;;;8.30;6.90;;;;;;;15.35;100.00;97614.81;109893;1279;138515;-90
2023/09/05 08:22:50;;;;;;;8.60;6.50;;;;;;;15.42;100.00;97614.66;110059;1279;22330;-91
2023/09/05 08:25:18;;;;;;;9.10;6.90;;;;;;;15.54;100.00;97607.80;107954;1271;2631172;-91
2023/09/05 08:27:45;;;;;;;7.40;5.60;;;;;;;15.68;100.00;97608.91;110106;1278;22328;-90
2023/09/05 08:30:16;;;;;;;8.40;6.80;;;;;;;15.76;100.00;97607.31;110064;1276;22334;-91
2023/09/05 08:32:43;;;;;;;7.90;5.70;;;;;;;15.82;100.00;97606.55;109944;1279;139163;-91
2023/09/05 08:35:10;;;;;;;6.90;5.50;;;;;;;15.89;100.00;97604.71;110064;1279;22208;-91
2023/09/05 08:37:37;;;;;;;7.90;5.80;;;;;;;15.92;100.00;97606.04;109954;1277;138946;-91
2023/09/05 08:40:03;;;;;;;6.80;5.40;;;;;;;15.96;100.00;97602.48;110027;1276;22324;-91
2023/09/05 08:42:32;;;;;;;8.50;5.10;;;;;;;16.01;100.00;97599.58;110053;1280;22322;-92
2023/09/05 08:44:59;;;;;;;6.40;5.70;;;;;;;16.06;100.00;97600.34;109936;1273;139223;-91
2023/09/05 08:47:28;;;;;;;9.40;6.20;;;;;;;16.09;100.00;97601.70;110048;1276;22627;-91
2023/09/05 08:49:55;;;;;;;7.80;5.70;;;;;;;16.14;100.00;97600.79;109925;1273;138722;-91
2023/09/05 08:52:23;;;;;;;6.70;5.60;;;;;;;16.19;100.00;97595.92;110069;1279;22232;-91
2023/09/05 08:54:50;;;;;;;8.90;5.80;;;;;;;16.28;100.00;97590.39;109995;1279;138824;-91
2023/09/05 08:57:17;;;;;;;8.80;5.60;;;;;;;16.36;100.00;97588.45;110023;1279;22323;-91
2023/09/05 08:59:44;;;;;;;7.20;5.90;;;;;;;16.46;100.00;97586.77;109969;1278;22195;-91
2023/09/05 09:02:14;;;;;;;8.10;5.50;;;;;;;16.53;100.00;97577.44;110002;1278;138512;-91
2023/09/05 09:04:51;;;;;;;6.00;5.00;;;;;;;16.60;100.00;97575.05;110024;1276;22314;-91
2023/09/05 09:07:17;;;;;;;6.10;5.40;;;;;;;16.64;100.00;97578.87;110004;1274;138617;-92
2023/09/05 09:09:46;;;;;;;8.90;6.20;;;;;;;16.66;100.00;97576.19;110107;1276;22187;-91
2023/09/05 09:12:14;;;;;;;6.50;5.10;;;;;;;16.70;100.00;97572.71;110005;1281;22891;-91
2023/09/05 09:14:40;;;;;;;5.90;4.70;;;;;;;16.75;100.00;97574.86;109987;1275;138273;-91
2023/09/05 09:17:06;;;;;;;5.30;4.70;;;;;;;16.80;100.00;97570.05;110067;1276;22383;-91
2023/09/05 09:19:32;;;;;;;5.60;4.40;;;;;;;16.83;100.00;97567.44;109936;1279;138895;-91
2023/09/05 09:22:00;;;;;;;6.80;4.90;;;;;;;16.88;100.00;97571.30;110019;1280;22384;-91
2023/09/05 09:24:35;;;;;;;6.10;4.80;;;;;;;16.97;100.00;97574.27;110019;1279;22160;-91
2023/09/05 09:27:02;;;;;;;5.00;4.50;;;;;;;17.03;100.00;97571.15;109955;1279;138967;-90
2023/09/05 09:29:29;;;;;;;6.00;4.80;;;;;;;17.08;100.00;97569.29;110078;1279;22880;-91
2023/09/05 09:32:05;;;;;;;6.80;4.90;;;;;;;17.16;100.00;97564.64;109923;1276;137870;-91
2023/09/05 09:34:35;;;;;;;7.50;5.20;;;;;;;17.22;100.00;97566.19;109947;1281;22230;-91
2023/09/05 09:37:25;;;;;;;9.50;5.20;;;;;;;17.25;100.00;97568.25;109987;1272;138585;-91
2023/09/05 09:40:01;;;;;;;5.70;4.60;;;;;;;17.28;100.00;97564.35;110133;1278;23177;-91
2023/09/05 09:42:48;;;;;;;6.50;4.50;;;;;;;17.31;100.00;97565.13;109936;1279;22278;-91
2023/09/05 09:45:18;;;;;;;6.40;5.10;;;;;;;17.36;100.00;97568.89;109874;1282;138695;-91
2023/09/05 09:47:48;;;;;;;5.70;5.00;;;;;;;17.39;100.00;97570.09;109914;1273;22247;-90
2023/09/05 09:50:16;;;;;;;7.10;4.60;;;;;;;17.48;100.00;97569.03;109754;1283;139244;-91
2023/09/05 09:52:44;;;;;;;5.60;4.80;;;;;;;17.55;100.00;97570.79;109919;1283;22445;-91
2023/09/05 09:55:11;;;;;;;6.20;4.80;;;;;;;17.64;100.00;97572.48;109813;1280;137743;-91
2023/09/05 09:57:44;;;;;;;7.10;4.30;;;;;;;17.72;100.00;97573.55;109959;1277;22457;-91
2023/09/05 10:00:15;;;;;;;5.40;4.40;;;;;;;17.77;100.00;97569.41;109872;1276;22216;-92
2023/09/05 10:02:45;;;;;;;4.60;4.10;;;;;;;17.80;100.00;97567.48;109836;1276;138400;-91
2023/09/05 10:05:12;;;;;;;5.30;4.30;;;;;;;17.81;100.00;97566.34;109905;1282;22250;-91
2023/09/05 10:07:43;;;;;;;5.90;4.30;;;;;;;17.84;100.00;97562.90;109897;1280;139190;-91
2023/09/05 10:10:15;;;;;;;5.30;4.30;;;;;;;17.87;100.00;97556.73;109977;1279;22480;-90
2023/09/05 10:12:44;;;;;;;5.10;3.50;;;;;;;17.95;100.00;97552.50;110079;1276;22218;-91
2023/09/05 10:15:13;;;;;;;6.50;4.10;;;;;;;18.02;100.00;97554.81;109953;1276;138136;-92
2023/09/05 10:17:41;;;;;;;5.30;3.70;;;;;;;18.07;100.00;97555.92;110052;1279;22190;-90
2023/09/05 10:20:09;;;;;;;6.10;3.60;;;;;;;18.13;100.00;97552.48;109913;1280;138966;-91
2023/09/05 10:22:43;;;;;;;6.00;3.70;;;;;;;18.18;100.00;97555.00;110028;1273;22345;-91
2023/09/05 10:25:09;;;;;;;4.30;3.90;;;;;;;18.22;100.00;97555.45;109969;1272;138696;-91
2023/09/05 10:27:53;;;;;;;4.80;3.70;;;;;;;18.32;100.00;97555.70;110098;1279;22185;-91
2023/09/05 10:30:23;;;;;;;4.00;3.60;;;;;;;18.39;100.00;97552.95;110059;1280;22201;-91
2023/09/05 10:32:52;;;;;;;5.50;3.20;;;;;;;18.46;100.00;97545.02;110002;1273;138300;-91
2023/09/05 10:35:20;;;;;;;4.40;3.80;;;;;;;18.51;100.00;97544.84;110048;1279;22321;-90
2023/09/05 10:37:50;;;;;;;5.70;3.50;;;;;;;18.54;100.00;97546.83;109994;1273;139230;-91
2023/09/05 10:40:17;;;;;;;4.20;3.10;;;;;;;18.62;100.00;97543.91;110031;1273;22375;-91
2023/09/05 10:42:51;;;;;;;4.10;3.70;;;;;;;18.67;100.00;97542.75;110008;1280;23144;-91
2023/09/05 10:45:28;;;;;;;4.40;3.60;;;;;;;18.72;100.00;97539.43;109993;1279;22256;-91
2023/09/05 10:48:08;;;;;;;6.30;3.50;;;;;;;18.78;99.98;97538.58;110028;1272;23167;-90
2023/09/05 10:51:07;;;;;;;3.40;2.90;;;;;;;18.87;100.00;97540.21;109952;1274;138773;-91
2023/09/05 10:53:40;;;;;;;3.50;3.10;;;;;;;18.93;100.00;97538.59;110042;1281;22273;-91
2023/09/05 10:56:26;;;;;;;4.40;3.10;;;;;;;18.96;99.87;97532.66;109919;1275;138539;-91
2023/09/05 10:58:56;;;;;;;3.90;3.50;;;;;;;19.02;99.98;97525.71;110069;1279;22448;-91
2023/09/05 11:01:32;;;;;;;5.90;3.20;;;;;;;19.07;100.00;97525.17;109935;1276;138703;-92
2023/09/05 11:04:07;;;;;;;3.70;2.80;;;;;;;19.10;99.06;97526.83;110181;1272;22415;-91
2023/09/05 11:06:39;;;;;;;3.50;3.10;;;;;;;19.16;98.70;97522.30;110068;1270;22714;-91
2023/09/05 11:09:06;;;;;;;3.60;3.20;;;;;;;19.22;98.23;97519.49;109891;1276;137990;-91
2023/09/05 11:11:35;;;;;;;3.60;3.30;;;;;;;19.29;99.14;97514.67;110083;1279;22852;-91
2023/09/05 11:14:01;;;;;;;4.90;3.30;;;;;;;19.36;99.87;97512.34;109990;1273;138573;-91
2023/09/05 11:16:28;;;;;;;3.80;2.90;;;;;;;19.39;98.43;97509.52;110053;1275;22218;-91
2023/09/05 11:18:56;;;;;;;3.70;3.20;;;;;;;19.45;98.57;97513.02;109940;1271;138650;-91